sensor_id;sensor_type;location;lat;lon;timestamp;temperature;humidity
13817;DHT22;6979;52.116;5.286;2023-07-02T00:02:14;20.90;99.90
13817;DHT22;6979;52.116;5.286;2023-07-02T00:04:41;20.80;99.90
13817;DHT22;6979;52.116;5.286;2023-07-02T00:07:08;20.70;99.90
13817;DHT22;6979;52.116;5.286;2023-07-02T00:09:35;20.70;99.90
13817;DHT22;6979;52.116;5.286;2023-07-02T00:12:02;20.70;99.90
13817;DHT22;6979;52.116;5.286;2023-07-02T00:14:31;20.60;99.90
13817;DHT22;6979;52.116;5.286;2023-07-02T00:16:58;20.50;99.90
13817;DHT22;6979;52.116;5.286;2023-07-02T00:19:25;20.50;99.90
13817;DHT22;6979;52.116;5.286;2023-07-02T00:21:52;20.50;99.90
13817;DHT22;6979;52.116;5.286;2023-07-02T00:24:19;20.40;99.90
13817;DHT22;6979;52.116;5.286;2023-07-02T00:26:46;20.30;99.90
13817;DHT22;6979;52.116;5.286;2023-07-02T00:29:14;20.30;99.90
13817;DHT22;6979;52.116;5.286;2023-07-02T00:31:42;20.20;99.90
13817;DHT22;6979;52.116;5.286;2023-07-02T00:34:09;20.20;99.90
13817;DHT22;6979;52.116;5.286;2023-07-02T00:36:36;20.10;99.90
13817;DHT22;6979;52.116;5.286;2023-07-02T00:39:03;20.10;99.90
13817;DHT22;6979;52.116;5.286;2023-07-02T00:41:30;20.00;99.90
13817;DHT22;6979;52.116;5.286;2023-07-02T00:43:57;20.00;99.90
13817;DHT22;6979;52.116;5.286;2023-07-02T00:46:24;20.00;99.90
13817;DHT22;6979;52.116;5.286;2023-07-02T00:48:54;19.90;99.90
13817;DHT22;6979;52.116;5.286;2023-07-02T00:51:24;19.90;99.90
13817;DHT22;6979;52.116;5.286;2023-07-02T00:53:53;19.80;99.90
13817;DHT22;6979;52.116;5.286;2023-07-02T00:56:23;19.80;99.90
13817;DHT22;6979;52.116;5.286;2023-07-02T00:58:53;19.70;99.90
13817;DHT22;6979;52.116;5.286;2023-07-02T01:01:25;19.70;99.90
13817;DHT22;6979;52.116;5.286;2023-07-02T01:03:57;19.70;99.90
13817;DHT22;6979;52.116;5.286;2023-07-02T01:06:26;19.70;99.90
13817;DHT22;6979;52.116;5.286;2023-07-02T01:08:55;19.70;99.90
13817;DHT22;6979;52.116;5.286;2023-07-02T01:11:25;19.60;99.90
13817;DHT22;6979;52.116;5.286;2023-07-02T01:13:56;19.60;99.90
13817;DHT22;6979;52.116;5.286;2023-07-02T01:16:24;19.60;99.90
13817;DHT22;6979;52.116;5.286;2023-07-02T01:18:55;19.60;99.90
13817;DHT22;6979;52.116;5.286;2023-07-02T01:21:25;19.50;99.90
13817;DHT22;6979;52.116;5.286;2023-07-02T01:23:52;19.50;99.90
13817;DHT22;6979;52.116;5.286;2023-07-02T01:26:19;19.40;99.90
13817;DHT22;6979;52.116;5.286;2023-07-02T01:28:46;19.40;99.90
13817;DHT22;6979;52.116;5.286;2023-07-02T01:31:13;19.30;99.90
13817;DHT22;6979;52.116;5.286;2023-07-02T01:33:40;19.30;99.90
13817;DHT22;6979;52.116;5.286;2023-07-02T01:36:09;19.20;99.90
13817;DHT22;6979;52.116;5.286;2023-07-02T01:38:42;19.10;99.90
13817;DHT22;6979;52.116;5.286;2023-07-02T01:41:10;19.10;99.90
13817;DHT22;6979;52.116;5.286;2023-07-02T01:43:37;19.00;99.90
13817;DHT22;6979;52.116;5.286;2023-07-02T01:46:05;19.00;99.90
13817;DHT22;6979;52.116;5.286;2023-07-02T01:48:32;18.90;99.90
13817;DHT22;6979;52.116;5.286;2023-07-02T01:50:58;18.80;99.90
13817;DHT22;6979;52.116;5.286;2023-07-02T01:53:25;18.80;99.90
13817;DHT22;6979;52.116;5.286;2023-07-02T01:55:54;18.70;99.90
13817;DHT22;6979;52.116;5.286;2023-07-02T01:58:20;18.70;99.90
13817;DHT22;6979;52.116;5.286;2023-07-02T02:00:48;18.60;99.90
13817;DHT22;6979;52.116;5.286;2023-07-02T02:03:15;18.60;99.90
13817;DHT22;6979;52.116;5.286;2023-07-02T02:05:41;18.50;99.90
13817;DHT22;6979;52.116;5.286;2023-07-02T02:08:08;18.50;99.90
13817;DHT22;6979;52.116;5.286;2023-07-02T02:10:37;18.50;99.90
13817;DHT22;6979;52.116;5.286;2023-07-02T02:13:05;18.40;99.90
13817;DHT22;6979;52.116;5.286;2023-07-02T02:15:32;18.40;99.90
13817;DHT22;6979;52.116;5.286;2023-07-02T02:17:59;18.30;99.90
13817;DHT22;6979;52.116;5.286;2023-07-02T02:20:26;18.30;99.90
13817;DHT22;6979;52.116;5.286;2023-07-02T02:22:53;18.30;99.90
13817;DHT22;6979;52.116;5.286;2023-07-02T02:25:20;18.20;99.90
13817;DHT22;6979;52.116;5.286;2023-07-02T02:27:47;18.20;99.90
13817;DHT22;6979;52.116;5.286;2023-07-02T02:30:16;18.20;99.90
13817;DHT22;6979;52.116;5.286;2023-07-02T02:32:43;18.10;99.90
13817;DHT22;6979;52.116;5.286;2023-07-02T02:35:11;18.10;99.90
13817;DHT22;6979;52.116;5.286;2023-07-02T02:37:39;18.10;99.90
13817;DHT22;6979;52.116;5.286;2023-07-02T02:40:07;18.00;99.90
13817;DHT22;6979;52.116;5.286;2023-07-02T02:42:36;18.00;99.90
13817;DHT22;6979;52.116;5.286;2023-07-02T02:45:04;18.00;99.90
13817;DHT22;6979;52.116;5.286;2023-07-02T02:47:33;17.90;99.90
13817;DHT22;6979;52.116;5.286;2023-07-02T02:50:00;17.90;99.90
13817;DHT22;6979;52.116;5.286;2023-07-02T02:52:27;17.90;99.90
13817;DHT22;6979;52.116;5.286;2023-07-02T02:54:53;17.80;99.90
13817;DHT22;6979;52.116;5.286;2023-07-02T02:57:20;17.80;99.90
13817;DHT22;6979;52.116;5.286;2023-07-02T02:59:47;17.70;99.90
13817;DHT22;6979;52.116;5.286;2023-07-02T03:02:14;17.70;99.90
13817;DHT22;6979;52.116;5.286;2023-07-02T03:04:43;17.70;99.90
13817;DHT22;6979;52.116;5.286;2023-07-02T03:07:11;17.70;99.90
13817;DHT22;6979;52.116;5.286;2023-07-02T03:09:37;17.70;99.90
13817;DHT22;6979;52.116;5.286;2023-07-02T03:12:05;17.60;99.90
13817;DHT22;6979;52.116;5.286;2023-07-02T03:14:32;17.60;99.90
13817;DHT22;6979;52.116;5.286;2023-07-02T03:16:59;17.60;99.90
13817;DHT22;6979;52.116;5.286;2023-07-02T03:19:27;17.60;99.90
13817;DHT22;6979;52.116;5.286;2023-07-02T03:21:55;17.60;99.90
13817;DHT22;6979;52.116;5.286;2023-07-02T03:24:22;17.60;99.90
13817;DHT22;6979;52.116;5.286;2023-07-02T03:26:49;17.50;99.90
13817;DHT22;6979;52.116;5.286;2023-07-02T03:29:15;17.60;99.90
13817;DHT22;6979;52.116;5.286;2023-07-02T03:31:45;17.50;99.90
13817;DHT22;6979;52.116;5.286;2023-07-02T03:34:12;17.50;99.90
13817;DHT22;6979;52.116;5.286;2023-07-02T03:36:39;17.50;99.90
13817;DHT22;6979;52.116;5.286;2023-07-02T03:39:08;17.50;99.90
13817;DHT22;6979;52.116;5.286;2023-07-02T03:41:35;17.40;99.90
13817;DHT22;6979;52.116;5.286;2023-07-02T03:44:02;17.40;99.90
13817;DHT22;6979;52.116;5.286;2023-07-02T03:46:29;17.40;99.90
13817;DHT22;6979;52.116;5.286;2023-07-02T03:48:56;17.30;99.90
13817;DHT22;6979;52.116;5.286;2023-07-02T03:51:23;17.30;99.90
13817;DHT22;6979;52.116;5.286;2023-07-02T03:53:50;17.30;99.90
13817;DHT22;6979;52.116;5.286;2023-07-02T03:56:18;17.30;99.90
13817;DHT22;6979;52.116;5.286;2023-07-02T03:58:46;17.30;99.90
13817;DHT22;6979;52.116;5.286;2023-07-02T04:01:13;17.30;99.90
13817;DHT22;6979;52.116;5.286;2023-07-02T04:03:42;17.30;99.90
13817;DHT22;6979;52.116;5.286;2023-07-02T04:06:08;17.30;99.90
13817;DHT22;6979;52.116;5.286;2023-07-02T04:08:35;17.30;99.90
13817;DHT22;6979;52.116;5.286;2023-07-02T04:11:02;17.30;99.90
13817;DHT22;6979;52.116;5.286;2023-07-02T04:13:30;17.20;99.90
13817;DHT22;6979;52.116;5.286;2023-07-02T04:15:58;17.20;99.90
13817;DHT22;6979;52.116;5.286;2023-07-02T04:18:25;17.20;99.90
13817;DHT22;6979;52.116;5.286;2023-07-02T04:20:52;17.20;99.90
13817;DHT22;6979;52.116;5.286;2023-07-02T04:23:19;17.30;99.90
13817;DHT22;6979;52.116;5.286;2023-07-02T04:25:46;17.30;99.90
13817;DHT22;6979;52.116;5.286;2023-07-02T04:28:13;17.30;99.90
13817;DHT22;6979;52.116;5.286;2023-07-02T04:30:41;17.30;99.90
13817;DHT22;6979;52.116;5.286;2023-07-02T04:33:08;17.30;99.90
13817;DHT22;6979;52.116;5.286;2023-07-02T04:35:39;17.30;99.90
13817;DHT22;6979;52.116;5.286;2023-07-02T04:38:07;17.30;99.90
13817;DHT22;6979;52.116;5.286;2023-07-02T04:40:35;17.30;99.90
13817;DHT22;6979;52.116;5.286;2023-07-02T04:43:01;17.30;99.90
13817;DHT22;6979;52.116;5.286;2023-07-02T04:45:30;17.40;99.90
13817;DHT22;6979;52.116;5.286;2023-07-02T04:48:03;17.40;99.90
13817;DHT22;6979;52.116;5.286;2023-07-02T04:50:30;17.40;99.90
13817;DHT22;6979;52.116;5.286;2023-07-02T04:52:57;17.50;99.90
13817;DHT22;6979;52.116;5.286;2023-07-02T04:55:24;17.50;99.90
13817;DHT22;6979;52.116;5.286;2023-07-02T04:57:51;17.50;99.90
13817;DHT22;6979;52.116;5.286;2023-07-02T05:00:19;17.50;99.90
13817;DHT22;6979;52.116;5.286;2023-07-02T05:02:47;17.50;99.90
13817;DHT22;6979;52.116;5.286;2023-07-02T05:05:17;17.60;99.90
13817;DHT22;6979;52.116;5.286;2023-07-02T05:07:44;17.60;99.90
13817;DHT22;6979;52.116;5.286;2023-07-02T05:10:13;17.60;99.90
13817;DHT22;6979;52.116;5.286;2023-07-02T05:12:42;17.60;99.90
13817;DHT22;6979;52.116;5.286;2023-07-02T05:15:10;17.60;99.90
13817;DHT22;6979;52.116;5.286;2023-07-02T05:17:39;17.60;99.90
13817;DHT22;6979;52.116;5.286;2023-07-02T05:20:07;17.70;99.90
13817;DHT22;6979;52.116;5.286;2023-07-02T05:22:36;17.70;99.90
13817;DHT22;6979;52.116;5.286;2023-07-02T05:25:05;17.70;99.90
13817;DHT22;6979;52.116;5.286;2023-07-02T05:27:34;17.70;99.90
13817;DHT22;6979;52.116;5.286;2023-07-02T05:30:02;17.80;99.90
13817;DHT22;6979;52.116;5.286;2023-07-02T05:32:29;17.80;99.90
13817;DHT22;6979;52.116;5.286;2023-07-02T05:34:56;17.90;99.90
13817;DHT22;6979;52.116;5.286;2023-07-02T05:37:23;17.90;99.90
13817;DHT22;6979;52.116;5.286;2023-07-02T05:39:51;18.00;99.90
13817;DHT22;6979;52.116;5.286;2023-07-02T05:42:19;18.00;99.90
13817;DHT22;6979;52.116;5.286;2023-07-02T05:44:46;18.10;99.90
13817;DHT22;6979;52.116;5.286;2023-07-02T05:47:12;18.10;99.90
13817;DHT22;6979;52.116;5.286;2023-07-02T05:49:41;18.20;99.90
13817;DHT22;6979;52.116;5.286;2023-07-02T05:52:08;18.30;99.90
13817;DHT22;6979;52.116;5.286;2023-07-02T05:54:39;18.30;99.90
13817;DHT22;6979;52.116;5.286;2023-07-02T05:57:07;18.40;99.90
13817;DHT22;6979;52.116;5.286;2023-07-02T05:59:34;18.40;99.90
13817;DHT22;6979;52.116;5.286;2023-07-02T06:02:01;18.50;99.90
13817;DHT22;6979;52.116;5.286;2023-07-02T06:04:28;18.60;99.90
13817;DHT22;6979;52.116;5.286;2023-07-02T06:06:55;18.60;99.90
13817;DHT22;6979;52.116;5.286;2023-07-02T06:09:23;18.70;99.90
13817;DHT22;6979;52.116;5.286;2023-07-02T06:11:50;18.70;99.90
13817;DHT22;6979;52.116;5.286;2023-07-02T06:14:18;18.80;99.90
13817;DHT22;6979;52.116;5.286;2023-07-02T06:16:45;18.80;99.90
13817;DHT22;6979;52.116;5.286;2023-07-02T06:19:12;18.90;99.90
13817;DHT22;6979;52.116;5.286;2023-07-02T06:21:39;18.90;99.90
13817;DHT22;6979;52.116;5.286;2023-07-02T06:24:06;19.00;99.90
13817;DHT22;6979;52.116;5.286;2023-07-02T06:26:33;19.10;99.90
13817;DHT22;6979;52.116;5.286;2023-07-02T06:29:02;19.20;99.90
13817;DHT22;6979;52.116;5.286;2023-07-02T06:31:30;19.30;99.90
13817;DHT22;6979;52.116;5.286;2023-07-02T06:33:57;19.40;99.90
13817;DHT22;6979;52.116;5.286;2023-07-02T06:36:24;19.40;99.90
13817;DHT22;6979;52.116;5.286;2023-07-02T06:38:51;19.50;99.90
13817;DHT22;6979;52.116;5.286;2023-07-02T06:41:18;19.60;99.90
13817;DHT22;6979;52.116;5.286;2023-07-02T06:43:45;19.70;99.90
13817;DHT22;6979;52.116;5.286;2023-07-02T06:46:12;19.70;99.90
13817;DHT22;6979;52.116;5.286;2023-07-02T06:48:40;19.80;99.90
13817;DHT22;6979;52.116;5.286;2023-07-02T06:51:07;19.80;99.90
13817;DHT22;6979;52.116;5.286;2023-07-02T06:53:35;19.90;99.90
13817;DHT22;6979;52.116;5.286;2023-07-02T06:56:02;19.90;99.90
13817;DHT22;6979;52.116;5.286;2023-07-02T06:58:30;19.90;99.90
13817;DHT22;6979;52.116;5.286;2023-07-02T07:00:57;20.00;99.90
13817;DHT22;6979;52.116;5.286;2023-07-02T07:03:24;20.00;99.90
13817;DHT22;6979;52.116;5.286;2023-07-02T07:05:53;20.10;99.90
13817;DHT22;6979;52.116;5.286;2023-07-02T07:08:19;20.10;99.90
13817;DHT22;6979;52.116;5.286;2023-07-02T07:10:47;20.20;99.90
13817;DHT22;6979;52.116;5.286;2023-07-02T07:13:14;20.20;99.90
13817;DHT22;6979;52.116;5.286;2023-07-02T07:15:41;20.30;99.90
13817;DHT22;6979;52.116;5.286;2023-07-02T07:18:09;20.30;99.90
13817;DHT22;6979;52.116;5.286;2023-07-02T07:20:38;20.40;99.90
13817;DHT22;6979;52.116;5.286;2023-07-02T07:23:06;20.40;99.90
13817;DHT22;6979;52.116;5.286;2023-07-02T07:25:33;20.40;99.90
13817;DHT22;6979;52.116;5.286;2023-07-02T07:28:00;20.50;99.90
13817;DHT22;6979;52.116;5.286;2023-07-02T07:30:27;20.50;99.90
13817;DHT22;6979;52.116;5.286;2023-07-02T07:32:55;20.50;99.90
13817;DHT22;6979;52.116;5.286;2023-07-02T07:35:22;20.50;99.90
13817;DHT22;6979;52.116;5.286;2023-07-02T07:37:49;20.50;99.90
13817;DHT22;6979;52.116;5.286;2023-07-02T07:40:18;20.50;99.90
13817;DHT22;6979;52.116;5.286;2023-07-02T07:42:45;20.60;99.90
13817;DHT22;6979;52.116;5.286;2023-07-02T07:45:11;20.60;99.90
13817;DHT22;6979;52.116;5.286;2023-07-02T07:47:38;20.60;99.90
13817;DHT22;6979;52.116;5.286;2023-07-02T07:50:07;20.70;99.90
13817;DHT22;6979;52.116;5.286;2023-07-02T07:52:36;20.70;99.90
13817;DHT22;6979;52.116;5.286;2023-07-02T07:55:04;20.80;99.90
13817;DHT22;6979;52.116;5.286;2023-07-02T07:57:33;20.80;99.90
13817;DHT22;6979;52.116;5.286;2023-07-02T08:00:00;20.90;99.90
13817;DHT22;6979;52.116;5.286;2023-07-02T08:02:42;20.90;99.90
13817;DHT22;6979;52.116;5.286;2023-07-02T08:05:09;21.00;99.90
13817;DHT22;6979;52.116;5.286;2023-07-02T08:07:36;21.10;99.90
13817;DHT22;6979;52.116;5.286;2023-07-02T08:10:11;21.10;99.90
13817;DHT22;6979;52.116;5.286;2023-07-02T08:12:39;21.10;99.90
13817;DHT22;6979;52.116;5.286;2023-07-02T08:15:07;21.20;99.90
13817;DHT22;6979;52.116;5.286;2023-07-02T08:17:34;21.20;99.90
13817;DHT22;6979;52.116;5.286;2023-07-02T08:20:01;21.30;99.90
13817;DHT22;6979;52.116;5.286;2023-07-02T08:22:30;21.30;99.90
13817;DHT22;6979;52.116;5.286;2023-07-02T08:24:57;21.40;99.90
13817;DHT22;6979;52.116;5.286;2023-07-02T08:27:23;21.40;99.90
13817;DHT22;6979;52.116;5.286;2023-07-02T08:29:53;21.40;99.90
13817;DHT22;6979;52.116;5.286;2023-07-02T08:32:19;21.40;99.90
13817;DHT22;6979;52.116;5.286;2023-07-02T08:34:46;21.50;99.90
13817;DHT22;6979;52.116;5.286;2023-07-02T08:37:13;21.50;99.90
13817;DHT22;6979;52.116;5.286;2023-07-02T08:39:40;21.50;99.90
13817;DHT22;6979;52.116;5.286;2023-07-02T08:42:07;21.50;99.90
13817;DHT22;6979;52.116;5.286;2023-07-02T08:44:34;21.60;99.60
13817;DHT22;6979;52.116;5.286;2023-07-02T08:47:05;21.60;99.90
13817;DHT22;6979;52.116;5.286;2023-07-02T08:49:32;21.70;99.50
13817;DHT22;6979;52.116;5.286;2023-07-02T08:51:59;21.70;99.70
13817;DHT22;6979;52.116;5.286;2023-07-02T08:54:26;21.70;99.70
13817;DHT22;6979;52.116;5.286;2023-07-02T08:56:53;21.70;99.40
13817;DHT22;6979;52.116;5.286;2023-07-02T08:59:20;21.90;99.30
13817;DHT22;6979;52.116;5.286;2023-07-02T09:01:47;22.20;99.90
13817;DHT22;6979;52.116;5.286;2023-07-02T09:04:20;22.50;99.60
13817;DHT22;6979;52.116;5.286;2023-07-02T09:06:49;22.80;98.60
13817;DHT22;6979;52.116;5.286;2023-07-02T09:09:18;23.00;98.30
13817;DHT22;6979;52.116;5.286;2023-07-02T09:11:48;23.10;98.20
13817;DHT22;6979;52.116;5.286;2023-07-02T09:14:27;23.20;98.30
13817;DHT22;6979;52.116;5.286;2023-07-02T09:17:04;23.40;97.50
13817;DHT22;6979;52.116;5.286;2023-07-02T09:19:33;23.80;96.50
13817;DHT22;6979;52.116;5.286;2023-07-02T09:22:03;24.10;95.90
13817;DHT22;6979;52.116;5.286;2023-07-02T09:24:32;24.40;95.70
13817;DHT22;6979;52.116;5.286;2023-07-02T09:26:59;24.60;94.90
13817;DHT22;6979;52.116;5.286;2023-07-02T09:29:28;24.70;93.80
13817;DHT22;6979;52.116;5.286;2023-07-02T09:31:56;24.80;92.60
13817;DHT22;6979;52.116;5.286;2023-07-02T09:34:29;24.90;91.50
13817;DHT22;6979;52.116;5.286;2023-07-02T09:36:59;24.90;91.40
13817;DHT22;6979;52.116;5.286;2023-07-02T09:39:27;24.90;91.70
13817;DHT22;6979;52.116;5.286;2023-07-02T09:41:55;24.90;92.10
13817;DHT22;6979;52.116;5.286;2023-07-02T09:44:26;25.00;91.50
13817;DHT22;6979;52.116;5.286;2023-07-02T09:46:58;25.10;90.90
13817;DHT22;6979;52.116;5.286;2023-07-02T09:49:27;25.20;91.00
13817;DHT22;6979;52.116;5.286;2023-07-02T09:52:00;25.30;90.90
13817;DHT22;6979;52.116;5.286;2023-07-02T09:54:28;25.40;90.60
13817;DHT22;6979;52.116;5.286;2023-07-02T09:56:55;25.40;89.80
13817;DHT22;6979;52.116;5.286;2023-07-02T09:59:22;25.40;89.90
13817;DHT22;6979;52.116;5.286;2023-07-02T10:01:49;25.30;89.80
13817;DHT22;6979;52.116;5.286;2023-07-02T10:04:18;25.20;89.30
13817;DHT22;6979;52.116;5.286;2023-07-02T10:06:46;25.20;87.10
13817;DHT22;6979;52.116;5.286;2023-07-02T10:09:15;25.20;84.90
13817;DHT22;6979;52.116;5.286;2023-07-02T10:11:43;25.20;85.50
13817;DHT22;6979;52.116;5.286;2023-07-02T10:14:10;25.20;85.90
13817;DHT22;6979;52.116;5.286;2023-07-02T10:16:52;25.20;84.80
13817;DHT22;6979;52.116;5.286;2023-07-02T10:19:20;25.20;85.40
13817;DHT22;6979;52.116;5.286;2023-07-02T10:22:00;25.10;85.70
13817;DHT22;6979;52.116;5.286;2023-07-02T10:24:29;25.10;85.20
13817;DHT22;6979;52.116;5.286;2023-07-02T10:26:57;25.00;85.30
13817;DHT22;6979;52.116;5.286;2023-07-02T10:29:25;25.00;82.00
13817;DHT22;6979;52.116;5.286;2023-07-02T10:31:53;24.90;82.80
13817;DHT22;6979;52.116;5.286;2023-07-02T10:34:30;24.90;83.10
13817;DHT22;6979;52.116;5.286;2023-07-02T10:36:59;25.00;83.50
13817;DHT22;6979;52.116;5.286;2023-07-02T10:39:26;25.20;83.30
13817;DHT22;6979;52.116;5.286;2023-07-02T10:42:04;25.40;83.80
13817;DHT22;6979;52.116;5.286;2023-07-02T10:44:33;25.70;81.60
13817;DHT22;6979;52.116;5.286;2023-07-02T10:47:04;25.80;81.80
13817;DHT22;6979;52.116;5.286;2023-07-02T10:49:32;26.00;82.80
13817;DHT22;6979;52.116;5.286;2023-07-02T10:51:59;26.10;84.20
13817;DHT22;6979;52.116;5.286;2023-07-02T10:54:37;26.30;83.80
13817;DHT22;6979;52.116;5.286;2023-07-02T10:57:07;26.40;81.20
13817;DHT22;6979;52.116;5.286;2023-07-02T10:59:34;26.50;81.00
13817;DHT22;6979;52.116;5.286;2023-07-02T11:02:01;26.50;82.40
13817;DHT22;6979;52.116;5.286;2023-07-02T11:04:29;26.50;82.30
13817;DHT22;6979;52.116;5.286;2023-07-02T11:06:58;26.40;81.00
13817;DHT22;6979;52.116;5.286;2023-07-02T11:09:26;26.30;80.90
13817;DHT22;6979;52.116;5.286;2023-07-02T11:11:54;26.20;80.90
13817;DHT22;6979;52.116;5.286;2023-07-02T11:14:30;26.10;81.50
13817;DHT22;6979;52.116;5.286;2023-07-02T11:16:59;26.10;81.50
13817;DHT22;6979;52.116;5.286;2023-07-02T11:19:28;26.10;82.90
13817;DHT22;6979;52.116;5.286;2023-07-02T11:21:56;26.10;81.90
13817;DHT22;6979;52.116;5.286;2023-07-02T11:24:28;26.10;79.20
13817;DHT22;6979;52.116;5.286;2023-07-02T11:26:55;26.00;80.00
13817;DHT22;6979;52.116;5.286;2023-07-02T11:29:23;26.00;79.60
13817;DHT22;6979;52.116;5.286;2023-07-02T11:31:51;25.90;80.20
13817;DHT22;6979;52.116;5.286;2023-07-02T11:34:20;25.90;81.10
13817;DHT22;6979;52.116;5.286;2023-07-02T11:36:47;26.00;81.60
13817;DHT22;6979;52.116;5.286;2023-07-02T11:39:15;26.10;82.00
13817;DHT22;6979;52.116;5.286;2023-07-02T11:41:44;26.20;80.70
13817;DHT22;6979;52.116;5.286;2023-07-02T11:44:12;26.40;80.70
13817;DHT22;6979;52.116;5.286;2023-07-02T11:46:38;26.60;80.80
13817;DHT22;6979;52.116;5.286;2023-07-02T11:49:07;26.80;80.00
13817;DHT22;6979;52.116;5.286;2023-07-02T11:51:35;26.90;79.90
13817;DHT22;6979;52.116;5.286;2023-07-02T11:54:02;26.90;78.60
13817;DHT22;6979;52.116;5.286;2023-07-02T11:56:29;26.90;78.00
13817;DHT22;6979;52.116;5.286;2023-07-02T11:58:56;26.90;78.20
13817;DHT22;6979;52.116;5.286;2023-07-02T12:01:23;26.80;77.10
13817;DHT22;6979;52.116;5.286;2023-07-02T12:03:50;26.70;77.40
13817;DHT22;6979;52.116;5.286;2023-07-02T12:06:19;26.60;77.70
13817;DHT22;6979;52.116;5.286;2023-07-02T12:08:49;26.50;77.70
13817;DHT22;6979;52.116;5.286;2023-07-02T12:11:16;26.40;77.10
13817;DHT22;6979;52.116;5.286;2023-07-02T12:13:43;26.30;77.20
13817;DHT22;6979;52.116;5.286;2023-07-02T12:16:10;26.20;78.40
13817;DHT22;6979;52.116;5.286;2023-07-02T12:18:37;26.20;78.60
13817;DHT22;6979;52.116;5.286;2023-07-02T12:21:04;26.20;79.00
13817;DHT22;6979;52.116;5.286;2023-07-02T12:23:32;26.10;79.50
13817;DHT22;6979;52.116;5.286;2023-07-02T12:25:59;26.10;78.10
13817;DHT22;6979;52.116;5.286;2023-07-02T12:28:25;26.10;79.30
13817;DHT22;6979;52.116;5.286;2023-07-02T12:30:52;26.10;78.90
13817;DHT22;6979;52.116;5.286;2023-07-02T12:33:21;26.20;79.20
13817;DHT22;6979;52.116;5.286;2023-07-02T12:35:49;26.20;79.40
13817;DHT22;6979;52.116;5.286;2023-07-02T12:38:16;26.20;75.40
13817;DHT22;6979;52.116;5.286;2023-07-02T12:40:44;26.20;76.40
13817;DHT22;6979;52.116;5.286;2023-07-02T12:43:11;26.20;77.80
13817;DHT22;6979;52.116;5.286;2023-07-02T12:45:38;26.10;78.20
13817;DHT22;6979;52.116;5.286;2023-07-02T12:48:05;26.10;77.60
13817;DHT22;6979;52.116;5.286;2023-07-02T12:50:32;26.20;77.80
13817;DHT22;6979;52.116;5.286;2023-07-02T12:52:59;26.20;78.00
13817;DHT22;6979;52.116;5.286;2023-07-02T12:55:26;26.10;76.20
13817;DHT22;6979;52.116;5.286;2023-07-02T12:57:55;26.20;76.00
13817;DHT22;6979;52.116;5.286;2023-07-02T13:00:22;26.20;76.20
13817;DHT22;6979;52.116;5.286;2023-07-02T13:02:49;26.20;77.10
13817;DHT22;6979;52.116;5.286;2023-07-02T13:05:16;26.20;74.90
13817;DHT22;6979;52.116;5.286;2023-07-02T13:07:43;26.20;74.70
13817;DHT22;6979;52.116;5.286;2023-07-02T13:10:10;26.10;76.70
13817;DHT22;6979;52.116;5.286;2023-07-02T13:12:37;26.20;77.40
13817;DHT22;6979;52.116;5.286;2023-07-02T13:15:06;26.20;74.10
13817;DHT22;6979;52.116;5.286;2023-07-02T13:17:33;26.30;75.60
13817;DHT22;6979;52.116;5.286;2023-07-02T13:20:00;26.30;74.10
13817;DHT22;6979;52.116;5.286;2023-07-02T13:22:28;26.40;74.90
13817;DHT22;6979;52.116;5.286;2023-07-02T13:24:55;26.40;75.40
13817;DHT22;6979;52.116;5.286;2023-07-02T13:27:22;26.60;75.70
13817;DHT22;6979;52.116;5.286;2023-07-02T13:29:48;26.70;75.50
13817;DHT22;6979;52.116;5.286;2023-07-02T13:32:17;26.90;75.30
13817;DHT22;6979;52.116;5.286;2023-07-02T13:34:44;27.00;75.40
13817;DHT22;6979;52.116;5.286;2023-07-02T13:37:11;27.20;75.20
13817;DHT22;6979;52.116;5.286;2023-07-02T13:39:40;27.30;75.20
13817;DHT22;6979;52.116;5.286;2023-07-02T13:42:08;27.30;74.00
13817;DHT22;6979;52.116;5.286;2023-07-02T13:44:35;27.30;71.40
13817;DHT22;6979;52.116;5.286;2023-07-02T13:47:02;27.20;72.10
13817;DHT22;6979;52.116;5.286;2023-07-02T13:49:32;27.10;73.20
13817;DHT22;6979;52.116;5.286;2023-07-02T13:51:59;27.10;73.50
13817;DHT22;6979;52.116;5.286;2023-07-02T13:54:26;27.00;73.00
13817;DHT22;6979;52.116;5.286;2023-07-02T13:56:53;27.00;73.40
13817;DHT22;6979;52.116;5.286;2023-07-02T13:59:21;27.00;74.30
13817;DHT22;6979;52.116;5.286;2023-07-02T14:01:48;27.10;72.90
13817;DHT22;6979;52.116;5.286;2023-07-02T14:04:17;27.10;71.10
13817;DHT22;6979;52.116;5.286;2023-07-02T14:06:44;27.10;71.90
13817;DHT22;6979;52.116;5.286;2023-07-02T14:09:11;27.10;71.50
13817;DHT22;6979;52.116;5.286;2023-07-02T14:11:40;27.00;72.60
13817;DHT22;6979;52.116;5.286;2023-07-02T14:14:07;27.00;72.80
13817;DHT22;6979;52.116;5.286;2023-07-02T14:16:36;27.00;74.00
13817;DHT22;6979;52.116;5.286;2023-07-02T14:19:03;27.00;74.30
13817;DHT22;6979;52.116;5.286;2023-07-02T14:21:31;27.00;74.50
13817;DHT22;6979;52.116;5.286;2023-07-02T14:23:58;27.00;73.30
13817;DHT22;6979;52.116;5.286;2023-07-02T14:26:25;27.00;73.90
13817;DHT22;6979;52.116;5.286;2023-07-02T14:28:52;26.90;72.20
13817;DHT22;6979;52.116;5.286;2023-07-02T14:31:20;26.90;73.00
13817;DHT22;6979;52.116;5.286;2023-07-02T14:33:48;26.80;73.20
13817;DHT22;6979;52.116;5.286;2023-07-02T14:36:17;26.70;72.50
13817;DHT22;6979;52.116;5.286;2023-07-02T14:38:44;26.60;74.20
13817;DHT22;6979;52.116;5.286;2023-07-02T14:41:12;26.50;75.00
13817;DHT22;6979;52.116;5.286;2023-07-02T14:43:39;26.50;74.90
13817;DHT22;6979;52.116;5.286;2023-07-02T14:46:06;26.40;74.10
13817;DHT22;6979;52.116;5.286;2023-07-02T14:48:33;26.40;74.30
13817;DHT22;6979;52.116;5.286;2023-07-02T14:51:02;26.40;73.80
13817;DHT22;6979;52.116;5.286;2023-07-02T14:53:30;26.30;73.90
13817;DHT22;6979;52.116;5.286;2023-07-02T14:55:59;26.20;73.50
13817;DHT22;6979;52.116;5.286;2023-07-02T14:58:27;26.10;73.10
13817;DHT22;6979;52.116;5.286;2023-07-02T15:00:56;25.90;74.30
13817;DHT22;6979;52.116;5.286;2023-07-02T15:03:24;25.90;74.90
13817;DHT22;6979;52.116;5.286;2023-07-02T15:05:52;25.80;74.50
13817;DHT22;6979;52.116;5.286;2023-07-02T15:08:21;25.80;75.00
13817;DHT22;6979;52.116;5.286;2023-07-02T15:10:49;25.80;75.70
13817;DHT22;6979;52.116;5.286;2023-07-02T15:13:17;25.80;73.50
13817;DHT22;6979;52.116;5.286;2023-07-02T15:15:45;25.90;75.30
13817;DHT22;6979;52.116;5.286;2023-07-02T15:18:12;25.90;74.80
13817;DHT22;6979;52.116;5.286;2023-07-02T15:20:39;26.00;73.10
13817;DHT22;6979;52.116;5.286;2023-07-02T15:23:07;26.00;73.40
13817;DHT22;6979;52.116;5.286;2023-07-02T15:25:35;26.00;74.70
13817;DHT22;6979;52.116;5.286;2023-07-02T15:28:02;26.00;74.10
13817;DHT22;6979;52.116;5.286;2023-07-02T15:30:29;26.00;74.70
13817;DHT22;6979;52.116;5.286;2023-07-02T15:32:56;26.10;74.60
13817;DHT22;6979;52.116;5.286;2023-07-02T15:35:23;26.20;74.60
13817;DHT22;6979;52.116;5.286;2023-07-02T15:37:50;26.20;74.70
13817;DHT22;6979;52.116;5.286;2023-07-02T15:40:17;26.20;75.30
13817;DHT22;6979;52.116;5.286;2023-07-02T15:42:45;26.40;74.70
13817;DHT22;6979;52.116;5.286;2023-07-02T15:45:12;26.40;75.10
13817;DHT22;6979;52.116;5.286;2023-07-02T15:47:40;26.50;74.00
13817;DHT22;6979;52.116;5.286;2023-07-02T15:50:10;26.50;74.10